createdAt,value
2023-02-13T00:00:38.292Z,100035.59
2023-02-13T00:03:06.274Z,100038.19
2023-02-13T00:05:32.972Z,100043.09
2023-02-13T00:07:59.668Z,100039.00
2023-02-13T00:10:26.350Z,100033.75
2023-02-13T00:12:53.058Z,100036.41
2023-02-13T00:15:19.741Z,100035.56
2023-02-13T00:17:46.428Z,100040.59
2023-02-13T00:20:13.215Z,100044.56
2023-02-13T00:22:39.895Z,100041.59
2023-02-13T00:25:07.176Z,100042.12
2023-02-13T00:27:33.987Z,100041.28
2023-02-13T00:30:00.738Z,100032.59
2023-02-13T00:32:27.409Z,100039.44
2023-02-13T00:34:54.094Z,100034.50
2023-02-13T00:37:20.734Z,100037.81
2023-02-13T00:39:47.475Z,100033.87
2023-02-13T00:42:14.143Z,100042.28
2023-02-13T00:44:40.841Z,100037.16
2023-02-13T00:47:07.517Z,100037.09
2023-02-13T00:49:34.188Z,100043.22
2023-02-13T00:52:00.886Z,100045.84
2023-02-13T00:54:27.575Z,100048.44
2023-02-13T00:56:54.231Z,100049.19
2023-02-13T00:59:21.054Z,100053.50
2023-02-13T01:01:47.753Z,100047.37
2023-02-13T01:04:14.451Z,100050.13
2023-02-13T01:06:41.248Z,100056.72
2023-02-13T01:09:07.928Z,100050.13
2023-02-13T01:11:34.596Z,100050.09
2023-02-13T01:14:01.395Z,100057.69
2023-02-13T01:16:28.198Z,100055.31
2023-02-13T01:18:54.945Z,100056.91
2023-02-13T01:21:22.091Z,100059.44
2023-02-13T01:23:48.869Z,100046.50
2023-02-13T01:26:21.606Z,100050.81
2023-02-13T01:28:48.377Z,100048.25
2023-02-13T01:31:15.313Z,100038.94
2023-02-13T01:33:42.084Z,100040.63
2023-02-13T01:36:10.027Z,100050.19
2023-02-13T01:38:36.743Z,100036.91
2023-02-13T01:41:03.476Z,100035.28
2023-02-13T01:43:50.089Z,100031.28
2023-02-13T01:46:18.681Z,100029.63
2023-02-13T01:48:45.498Z,100025.34
2023-02-13T01:51:13.696Z,100028.72
2023-02-13T01:53:42.368Z,100032.81
2023-02-13T01:56:11.452Z,100027.75
2023-02-13T01:58:38.504Z,100029.06
2023-02-13T02:01:05.286Z,100024.28
2023-02-13T02:03:33.547Z,100029.34
2023-02-13T02:06:00.204Z,100024.06
2023-02-13T02:08:26.872Z,100027.59
2023-02-13T02:10:54.272Z,100026.78
2023-02-13T02:13:21.471Z,100023.19
2023-02-13T02:15:49.024Z,100026.50
2023-02-13T02:18:16.596Z,100017.16
2023-02-13T02:21:01.716Z,100028.19
2023-02-13T02:23:46.824Z,100032.19
2023-02-13T02:26:16.254Z,100026.84
2023-02-13T02:28:42.884Z,100027.50
2023-02-13T02:31:15.330Z,100025.25
2023-02-13T02:34:00.780Z,100019.22
2023-02-13T02:36:30.339Z,100016.09
2023-02-13T02:39:00.001Z,100021.34
2023-02-13T02:41:41.896Z,100017.81
2023-02-13T02:44:17.816Z,100011.88
2023-02-13T02:47:04.385Z,100001.84
2023-02-13T02:49:49.446Z,99996.09
2023-02-13T02:52:18.140Z,100001.09
2023-02-13T02:55:07.312Z,100008.69
2023-02-13T02:57:53.605Z,100017.03
2023-02-13T03:00:39.793Z,100005.19
2023-02-13T03:03:25.292Z,100007.75
2023-02-13T03:06:10.605Z,99997.25
2023-02-13T03:08:56.375Z,99997.38
2023-02-13T03:11:41.544Z,100009.81
2023-02-13T03:14:08.396Z,100013.44
2023-02-13T03:16:53.835Z,100013.66
2023-02-13T03:19:41.982Z,100008.56
2023-02-13T03:22:27.348Z,100003.16
2023-02-13T03:25:02.438Z,100005.19
2023-02-13T03:27:50.811Z,100011.69
2023-02-13T03:30:34.119Z,100010.94
2023-02-13T03:33:00.920Z,100014.16
2023-02-13T03:35:53.405Z,100008.12
2023-02-13T03:38:24.838Z,100010.00
2023-02-13T03:41:16.175Z,100005.81
2023-02-13T03:43:45.658Z,100009.87
2023-02-13T03:46:12.392Z,100005.81
2023-02-13T03:48:57.880Z,100006.34
2023-02-13T03:51:27.661Z,100003.84
2023-02-13T03:53:56.576Z,100005.25
2023-02-13T03:56:42.024Z,100011.31
2023-02-13T03:59:18.368Z,100005.25
2023-02-13T04:01:46.794Z,100003.66
2023-02-13T04:04:15.936Z,100005.06
2023-02-13T04:07:02.912Z,100001.84
2023-02-13T04:09:29.906Z,100013.69
2023-02-13T04:11:59.103Z,100004.56
2023-02-13T04:14:27.976Z,100007.97
2023-02-13T04:16:58.606Z,100004.56
2023-02-13T04:19:25.815Z,100010.94
2023-02-13T04:21:56.545Z,100012.09
2023-02-13T04:24:23.312Z,100010.88
2023-02-13T04:26:50.046Z,100014.72
2023-02-13T04:29:16.719Z,100014.47
2023-02-13T04:31:43.603Z,100020.78
2023-02-13T04:34:10.453Z,100013.94
2023-02-13T04:36:37.154Z,100013.81
2023-02-13T04:39:03.909Z,100017.59
2023-02-13T04:41:30.626Z,100004.09
2023-02-13T04:43:57.388Z,100007.03
2023-02-13T04:46:24.173Z,100011.88
2023-02-13T04:48:50.906Z,100010.00
2023-02-13T04:51:17.675Z,100004.78
2023-02-13T04:53:44.387Z,100014.16
2023-02-13T04:56:11.246Z,100001.78
2023-02-13T04:58:37.948Z,100005.06
2023-02-13T05:01:11.630Z,100000.09
2023-02-13T05:03:38.344Z,100001.19
2023-02-13T05:06:05.185Z,100000.78
2023-02-13T05:08:31.883Z,100004.94
2023-02-13T05:10:58.847Z,100004.78
2023-02-13T05:13:25.723Z,100003.41
2023-02-13T05:15:55.133Z,99997.72
2023-02-13T05:18:21.912Z,99997.66
2023-02-13T05:21:11.273Z,99996.97
2023-02-13T05:23:38.074Z,100002.03
2023-02-13T05:26:04.982Z,99996.00
2023-02-13T05:28:50.422Z,99994.37
2023-02-13T05:31:17.342Z,99991.69
2023-02-13T05:33:44.113Z,99995.91
2023-02-13T05:36:10.843Z,99988.06
2023-02-13T05:38:37.577Z,99993.81
2023-02-13T05:41:04.324Z,99996.94
2023-02-13T05:43:31.083Z,99992.91
2023-02-13T05:46:07.598Z,99996.75
2023-02-13T05:48:34.697Z,99992.22
2023-02-13T05:51:01.736Z,99999.28
2023-02-13T05:53:29.943Z,100003.19
2023-02-13T05:55:56.867Z,100001.97
2023-02-13T05:58:23.862Z,100002.06
2023-02-13T06:00:50.643Z,100001.47
2023-02-13T06:03:17.329Z,99993.34
2023-02-13T06:05:44.100Z,99999.72
2023-02-13T06:08:10.871Z,99995.31
2023-02-13T06:10:37.601Z,99997.50
2023-02-13T06:13:04.281Z,99999.16
2023-02-13T06:15:31.016Z,100000.19
2023-02-13T06:17:57.849Z,100001.38
2023-02-13T06:20:24.716Z,100005.81
2023-02-13T06:22:51.781Z,100004.41
2023-02-13T06:25:18.534Z,100009.25
2023-02-13T06:27:45.379Z,100004.78
2023-02-13T06:30:12.400Z,100020.03
2023-02-13T06:32:39.193Z,100013.06
2023-02-13T06:35:06.265Z,100015.38
2023-02-13T06:37:33.105Z,100022.22
2023-02-13T06:39:59.813Z,100024.78
2023-02-13T06:42:26.512Z,100028.22
2023-02-13T06:44:53.264Z,100023.00
2023-02-13T06:47:20.049Z,100026.69
2023-02-13T06:49:46.857Z,100021.72
2023-02-13T06:52:13.641Z,100025.94
2023-02-13T06:54:47.246Z,100026.44
2023-02-13T06:57:15.177Z,100025.03
2023-02-13T06:59:42.108Z,100031.84
2023-02-13T07:02:12.230Z,100039.25
2023-02-13T07:04:38.933Z,100028.19
2023-02-13T07:07:05.708Z,100034.56
2023-02-13T07:09:32.347Z,100023.56
2023-02-13T07:11:59.019Z,100034.13
2023-02-13T07:14:25.692Z,100032.53
2023-02-13T07:16:52.329Z,100030.25
2023-02-13T07:19:19.125Z,100039.75
2023-02-13T07:21:45.845Z,100031.31
2023-02-13T07:24:12.545Z,100034.75
2023-02-13T07:26:39.185Z,100038.06
2023-02-13T07:29:11.627Z,100039.38
2023-02-13T07:31:39.425Z,100043.47
2023-02-13T07:34:06.214Z,100048.25
2023-02-13T07:36:32.879Z,100049.12
2023-02-13T07:38:59.592Z,100060.66
2023-02-13T07:41:27.119Z,100054.50
2023-02-13T07:43:54.451Z,100055.53
2023-02-13T07:46:21.271Z,100049.72
2023-02-13T07:48:47.965Z,100043.41
2023-02-13T07:51:14.835Z,100057.22
2023-02-13T07:53:41.519Z,100059.16
2023-02-13T07:56:08.519Z,100048.28
2023-02-13T07:58:35.946Z,100054.69
2023-02-13T08:01:09.333Z,100055.78
2023-02-13T08:03:57.149Z,100065.91
2023-02-13T08:06:25.222Z,100050.31
2023-02-13T08:09:11.795Z,100056.91
2023-02-13T08:11:56.569Z,100051.94
2023-02-13T08:14:23.921Z,100048.56
2023-02-13T08:16:50.814Z,100051.13
2023-02-13T08:19:17.552Z,100050.56
2023-02-13T08:21:44.260Z,100055.56
2023-02-13T08:24:11.051Z,100059.75
2023-02-13T08:26:37.687Z,100057.00
2023-02-13T08:29:04.778Z,100048.47
2023-02-13T08:31:31.710Z,100054.81
2023-02-13T08:33:58.532Z,100058.84
2023-02-13T08:36:25.261Z,100055.38
2023-02-13T08:38:51.994Z,100048.59
2023-02-13T08:41:19.463Z,100049.50
2023-02-13T08:43:46.136Z,100052.16
2023-02-13T08:46:12.871Z,100056.44
2023-02-13T08:48:39.613Z,100054.66
2023-02-13T08:51:09.926Z,100056.28
2023-02-13T08:53:37.038Z,100048.38
2023-02-13T08:56:03.855Z,100051.63
2023-02-13T08:58:30.606Z,100055.97
2023-02-13T09:00:57.449Z,100057.00
2023-02-13T09:03:24.233Z,100054.28
2023-02-13T09:05:50.924Z,100058.69
2023-02-13T09:08:18.836Z,100060.34
2023-02-13T09:10:45.755Z,100061.75
2023-02-13T09:13:12.644Z,100059.69
2023-02-13T09:15:40.613Z,100062.03
2023-02-13T09:18:07.535Z,100063.28
2023-02-13T09:20:35.798Z,100063.38
2023-02-13T09:23:02.845Z,100054.69
2023-02-13T09:25:29.573Z,100058.28
2023-02-13T09:27:56.264Z,100068.13
2023-02-13T09:30:26.034Z,100057.25
2023-02-13T09:32:53.078Z,100050.22
2023-02-13T09:35:20.370Z,100063.78
2023-02-13T09:37:47.255Z,100061.47
2023-02-13T09:40:27.763Z,100057.50
2023-02-13T09:42:55.283Z,100066.31
2023-02-13T09:45:22.030Z,100062.56
2023-02-13T09:47:51.834Z,100060.94
2023-02-13T09:50:34.938Z,100064.37
2023-02-13T09:53:01.806Z,100065.00
2023-02-13T09:55:28.955Z,100068.22
2023-02-13T09:58:20.599Z,100057.66
2023-02-13T10:00:50.886Z,100061.75
2023-02-13T10:03:17.824Z,100062.69
2023-02-13T10:05:50.224Z,100059.91
2023-02-13T10:08:35.559Z,100057.81
2023-02-13T10:11:05.371Z,100060.84
2023-02-13T10:13:50.589Z,100061.16
2023-02-13T10:16:31.312Z,100055.44
2023-02-13T10:18:59.285Z,100058.84
2023-02-13T10:21:28.905Z,100049.19
2023-02-13T10:24:03.311Z,100055.06
2023-02-13T10:26:42.889Z,100062.62
2023-02-13T10:29:31.244Z,100057.34
2023-02-13T10:32:00.829Z,100057.37
2023-02-13T10:34:27.659Z,100057.75
2023-02-13T10:36:54.370Z,100051.06
2023-02-13T10:39:25.774Z,100041.34
2023-02-13T10:41:59.164Z,100050.47
2023-02-13T10:44:44.596Z,100040.53
2023-02-13T10:47:29.455Z,100044.75
2023-02-13T10:49:59.360Z,100047.69
2023-02-13T10:52:26.064Z,100037.13
2023-02-13T10:55:11.622Z,100037.88
2023-02-13T10:57:57.680Z,100029.91
2023-02-13T11:00:46.876Z,100032.69
2023-02-13T11:03:16.262Z,100038.72
2023-02-13T11:05:42.995Z,100044.50
2023-02-13T11:08:33.018Z,100045.97
2023-02-13T11:10:59.727Z,100035.06
2023-02-13T11:13:27.457Z,100043.16
2023-02-13T11:16:17.306Z,100035.81
2023-02-13T11:18:44.470Z,100037.09
2023-02-13T11:21:13.473Z,100038.94
2023-02-13T11:23:44.410Z,100042.09
2023-02-13T11:26:37.256Z,100044.88
2023-02-13T11:29:15.445Z,100031.72
2023-02-13T11:31:42.243Z,100029.34
2023-02-13T11:34:25.664Z,100034.63
2023-02-13T11:37:16.182Z,100029.97
2023-02-13T11:39:43.586Z,100035.69
2023-02-13T11:42:29.810Z,100037.91
2023-02-13T11:44:59.119Z,100038.34
2023-02-13T11:47:35.365Z,100032.72
2023-02-13T11:50:03.180Z,100035.06
2023-02-13T11:52:34.275Z,100032.00
2023-02-13T11:55:05.018Z,100028.53
2023-02-13T11:57:32.983Z,100026.00
2023-02-13T12:00:00.429Z,100023.78
2023-02-13T12:02:28.261Z,100026.97
2023-02-13T12:05:13.549Z,100028.06
2023-02-13T12:07:40.219Z,100024.41
2023-02-13T12:10:19.278Z,100016.41
2023-02-13T12:13:09.077Z,100011.84
2023-02-13T12:15:36.568Z,100014.03
2023-02-13T12:18:22.095Z,100009.34
2023-02-13T12:20:54.174Z,99995.91
2023-02-13T12:23:28.508Z,100000.47
2023-02-13T12:25:58.508Z,100007.94
2023-02-13T12:28:33.170Z,99994.41
2023-02-13T12:31:05.947Z,99988.97
2023-02-13T12:33:51.898Z,99988.00
2023-02-13T12:36:22.013Z,99981.41
2023-02-13T12:39:00.990Z,99985.41
2023-02-13T12:41:36.450Z,99985.78
2023-02-13T12:44:14.601Z,99985.66
2023-02-13T12:46:41.294Z,99990.38
2023-02-13T12:49:17.370Z,99981.94
2023-02-13T12:51:50.213Z,99974.53
2023-02-13T12:54:16.872Z,99964.75
2023-02-13T12:57:02.538Z,99972.13
2023-02-13T12:59:31.605Z,99960.06
2023-02-13T13:02:01.247Z,99963.34
2023-02-13T13:04:48.339Z,99959.66
2023-02-13T13:07:27.423Z,99959.78
2023-02-13T13:09:54.118Z,99952.22
2023-02-13T13:12:26.694Z,99948.78
2023-02-13T13:14:59.617Z,99945.25
2023-02-13T13:17:39.266Z,99947.44
2023-02-13T13:20:08.944Z,99945.72
2023-02-13T13:22:38.609Z,99937.56
2023-02-13T13:25:11.767Z,99959.59
2023-02-13T13:27:40.363Z,99961.19
2023-02-13T13:30:19.524Z,99957.75
2023-02-13T13:32:46.320Z,99949.66
2023-02-13T13:35:16.230Z,99959.72
2023-02-13T13:37:45.386Z,99959.47
2023-02-13T13:40:30.897Z,99967.19
2023-02-13T13:43:02.291Z,99959.00
2023-02-13T13:45:28.951Z,99950.97
2023-02-13T13:48:14.445Z,99957.09
2023-02-13T13:50:41.988Z,99961.97
2023-02-13T13:53:08.645Z,99952.81
2023-02-13T13:55:49.920Z,99954.50
2023-02-13T13:58:25.758Z,99948.66
2023-02-13T14:01:11.077Z,99959.34
2023-02-13T14:03:40.168Z,99944.00
2023-02-13T14:06:08.009Z,99946.81
2023-02-13T14:08:37.485Z,99960.66
2023-02-13T14:11:05.379Z,99957.19
2023-02-13T14:13:34.834Z,99965.47
2023-02-13T14:16:02.013Z,99961.59
2023-02-13T14:18:28.832Z,99961.69
2023-02-13T14:21:00.074Z,99966.72
2023-02-13T14:23:50.430Z,99956.31
2023-02-13T14:26:17.130Z,99963.59
2023-02-13T14:28:44.664Z,99958.44
2023-02-13T14:31:27.541Z,99947.37
2023-02-13T14:34:01.461Z,99945.50
2023-02-13T14:36:33.557Z,99944.25
2023-02-13T14:39:18.814Z,99944.28
2023-02-13T14:41:51.392Z,99936.84
2023-02-13T14:44:32.473Z,99938.41
2023-02-13T14:47:00.505Z,99949.00
2023-02-13T14:49:28.576Z,99952.59
2023-02-13T14:51:59.152Z,99954.50
2023-02-13T14:54:36.728Z,99951.94
2023-02-13T14:57:10.381Z,99945.97
2023-02-13T14:59:37.557Z,99947.16
2023-02-13T15:02:13.318Z,99949.00
2023-02-13T15:04:43.973Z,99947.91
2023-02-13T15:07:25.045Z,99946.50
2023-02-13T15:10:04.770Z,99946.25
2023-02-13T15:12:32.732Z,99939.00
2023-02-13T15:15:01.553Z,99937.28
2023-02-13T15:17:30.282Z,99940.22
2023-02-13T15:20:00.211Z,99939.16
2023-02-13T15:22:33.994Z,99950.53
2023-02-13T15:25:00.728Z,99945.00
2023-02-13T15:27:31.330Z,99945.47
2023-02-13T15:30:05.656Z,99952.28
2023-02-13T15:32:37.007Z,99948.03
2023-02-13T15:35:22.646Z,99941.66
2023-02-13T15:37:49.348Z,99940.44
2023-02-13T15:40:17.402Z,99942.53
2023-02-13T15:42:44.097Z,99935.91
2023-02-13T15:45:14.192Z,99937.09
2023-02-13T15:47:40.859Z,99927.75
2023-02-13T15:50:15.199Z,99924.03
2023-02-13T15:52:41.912Z,99919.56
2023-02-13T15:55:18.391Z,99920.34
2023-02-13T15:57:45.081Z,99923.22
2023-02-13T16:00:17.999Z,99920.16
2023-02-13T16:02:46.373Z,99922.78
2023-02-13T16:05:13.378Z,99928.69
2023-02-13T16:07:48.482Z,99929.56
2023-02-13T16:10:16.267Z,99931.28
2023-02-13T16:12:45.403Z,99933.13
2023-02-13T16:15:19.146Z,99929.91
2023-02-13T16:17:46.205Z,99925.56
2023-02-13T16:20:12.893Z,99928.66
2023-02-13T16:22:45.777Z,99934.66
2023-02-13T16:25:12.434Z,99930.63
2023-02-13T16:27:52.564Z,99930.25
2023-02-13T16:30:35.606Z,99928.59
2023-02-13T16:33:17.426Z,99928.62
2023-02-13T16:35:44.860Z,99936.38
2023-02-13T16:38:27.285Z,99924.00
2023-02-13T16:40:55.776Z,99934.03
2023-02-13T16:43:39.233Z,99926.56
2023-02-13T16:46:12.246Z,99928.09
2023-02-13T16:48:38.989Z,99933.41
2023-02-13T16:51:05.645Z,99930.13
2023-02-13T16:53:34.201Z,99931.44
2023-02-13T16:56:10.899Z,99929.97
2023-02-13T16:58:37.589Z,99928.38
2023-02-13T17:01:04.345Z,99929.88
2023-02-13T17:03:32.098Z,99926.66
2023-02-13T17:06:02.379Z,99924.91
2023-02-13T17:08:30.618Z,99923.69
2023-02-13T17:11:07.399Z,99931.09
2023-02-13T17:13:34.216Z,99927.59
2023-02-13T17:16:00.884Z,99924.56
2023-02-13T17:18:27.632Z,99914.34
2023-02-13T17:20:54.312Z,99907.56
2023-02-13T17:23:22.669Z,99916.38
2023-02-13T17:25:49.933Z,99918.25
2023-02-13T17:28:18.272Z,99912.78
2023-02-13T17:30:45.162Z,99907.41
2023-02-13T17:33:15.584Z,99913.38
2023-02-13T17:35:42.278Z,99910.84
2023-02-13T17:38:09.828Z,99912.44
2023-02-13T17:40:36.533Z,99910.44
2023-02-13T17:43:03.257Z,99908.75
2023-02-13T17:45:31.479Z,99916.41
2023-02-13T17:47:58.376Z,99911.78
2023-02-13T17:50:28.370Z,99905.44
2023-02-13T17:52:55.081Z,99912.66
2023-02-13T17:55:22.954Z,99914.47
2023-02-13T17:57:49.639Z,99914.03
2023-02-13T18:00:16.800Z,99911.41
2023-02-13T18:02:43.483Z,99906.38
2023-02-13T18:05:10.317Z,99901.28
2023-02-13T18:07:36.981Z,99897.91
2023-02-13T18:10:03.713Z,99902.44
2023-02-13T18:12:30.397Z,99902.31
2023-02-13T18:14:57.079Z,99904.38
2023-02-13T18:17:23.809Z,99902.09
2023-02-13T18:19:51.016Z,99892.97
2023-02-13T18:22:17.643Z,99893.75
2023-02-13T18:24:44.346Z,99898.00
2023-02-13T18:27:13.641Z,99892.06
2023-02-13T18:29:40.429Z,99893.66
2023-02-13T18:32:10.221Z,99892.69
2023-02-13T18:34:37.453Z,99888.44
2023-02-13T18:37:04.485Z,99884.53
2023-02-13T18:39:32.509Z,99875.62
2023-02-13T18:41:59.502Z,99877.81
2023-02-13T18:44:28.742Z,99877.50
2023-02-13T18:46:55.901Z,99869.25
2023-02-13T18:49:22.553Z,99872.31
2023-02-13T18:51:49.219Z,99866.00
2023-02-13T18:54:16.555Z,99864.44
2023-02-13T18:56:43.228Z,99868.88
2023-02-13T18:59:09.873Z,99860.94
2023-02-13T19:01:36.820Z,99870.28
2023-02-13T19:04:03.923Z,99870.72
2023-02-13T19:06:30.741Z,99863.78
2023-02-13T19:08:57.584Z,99862.00
2023-02-13T19:11:25.068Z,99868.56
2023-02-13T19:13:55.762Z,99875.94
2023-02-13T19:16:22.954Z,99876.50
2023-02-13T19:18:53.110Z,99868.69
2023-02-13T19:21:24.075Z,99870.97
2023-02-13T19:23:51.104Z,99863.44
2023-02-13T19:26:18.902Z,99865.16
2023-02-13T19:28:45.663Z,99870.09
2023-02-13T19:31:15.193Z,99873.94
2023-02-13T19:33:42.290Z,99867.28
2023-02-13T19:36:11.936Z,99868.16
2023-02-13T19:38:39.006Z,99862.16
2023-02-13T19:41:06.170Z,99859.03
2023-02-13T19:43:33.132Z,99860.03
2023-02-13T19:46:05.832Z,99855.25
2023-02-13T19:48:32.592Z,99853.88
2023-02-13T19:50:59.539Z,99841.25
2023-02-13T19:53:26.396Z,99841.72
2023-02-13T19:55:58.492Z,99843.63
2023-02-13T19:58:25.222Z,99848.91
2023-02-13T20:00:51.851Z,99840.03
2023-02-13T20:03:18.511Z,99845.72
2023-02-13T20:05:45.193Z,99842.16
2023-02-13T20:08:11.987Z,99849.34
2023-02-13T20:10:38.718Z,99847.59
2023-02-13T20:13:05.392Z,99848.87
2023-02-13T20:15:32.496Z,99841.59
2023-02-13T20:17:59.205Z,99837.84
2023-02-13T20:20:27.973Z,99849.44
2023-02-13T20:22:54.712Z,99846.63
2023-02-13T20:25:22.251Z,99857.53
2023-02-13T20:27:48.959Z,99855.28
2023-02-13T20:30:16.120Z,99855.13
2023-02-13T20:32:42.948Z,99869.06
2023-02-13T20:35:09.666Z,99856.41
2023-02-13T20:37:36.410Z,99852.72
2023-02-13T20:40:03.069Z,99853.53
2023-02-13T20:42:32.071Z,99854.91
2023-02-13T20:44:58.725Z,99849.69
2023-02-13T20:47:25.390Z,99849.56
2023-02-13T20:49:52.084Z,99839.88
2023-02-13T20:52:18.803Z,99843.31
2023-02-13T20:54:45.510Z,99830.53
2023-02-13T20:57:13.373Z,99833.28
2023-02-13T20:59:42.775Z,99823.66
2023-02-13T21:02:09.924Z,99816.84
2023-02-13T21:04:36.665Z,99826.75
2023-02-13T21:07:03.741Z,99825.81
2023-02-13T21:09:30.452Z,99824.72
2023-02-13T21:11:57.103Z,99823.44
2023-02-13T21:14:24.602Z,99831.91
2023-02-13T21:16:51.293Z,99832.31
2023-02-13T21:19:19.332Z,99821.16
2023-02-13T21:21:46.341Z,99819.19
2023-02-13T21:24:15.359Z,99817.94
2023-02-13T21:26:42.263Z,99820.44
2023-02-13T21:29:08.954Z,99822.38
2023-02-13T21:31:37.264Z,99823.72
2023-02-13T21:34:05.008Z,99822.75
2023-02-13T21:36:32.070Z,99822.97
2023-02-13T21:38:58.789Z,99829.00
2023-02-13T21:41:25.568Z,99827.41
2023-02-13T21:43:52.223Z,99821.50
2023-02-13T21:46:20.760Z,99816.53
2023-02-13T21:48:47.745Z,99822.84
2023-02-13T21:51:15.364Z,99822.31
2023-02-13T21:53:42.360Z,99816.19
2023-02-13T21:56:11.027Z,99812.66
2023-02-13T21:58:38.251Z,99822.00
2023-02-13T22:01:23.817Z,99823.09
2023-02-13T22:03:51.907Z,99817.94
2023-02-13T22:06:20.031Z,99817.00
2023-02-13T22:08:46.767Z,99811.78
2023-02-13T22:11:13.450Z,99816.41
2023-02-13T22:13:40.096Z,99820.41
2023-02-13T22:16:07.998Z,99817.41
2023-02-13T22:18:38.883Z,99814.88
2023-02-13T22:21:06.332Z,99831.53
2023-02-13T22:23:36.419Z,99826.16
2023-02-13T22:26:03.921Z,99828.25
2023-02-13T22:28:30.985Z,99825.72
2023-02-13T22:30:58.047Z,99820.03
2023-02-13T22:33:24.905Z,99818.19
2023-02-13T22:35:51.547Z,99814.88
2023-02-13T22:38:18.249Z,99814.12
2023-02-13T22:40:44.898Z,99820.56
2023-02-13T22:43:11.563Z,99812.72
2023-02-13T22:45:38.439Z,99809.56
2023-02-13T22:48:05.675Z,99818.22
2023-02-13T22:50:32.586Z,99821.62
2023-02-13T22:52:59.293Z,99817.09
2023-02-13T22:55:26.174Z,99824.03
2023-02-13T22:57:55.746Z,99826.34
2023-02-13T23:00:22.906Z,99825.06
2023-02-13T23:02:50.038Z,99831.50
2023-02-13T23:05:17.137Z,99820.44
2023-02-13T23:07:43.928Z,99816.72
2023-02-13T23:10:11.050Z,99809.94
2023-02-13T23:12:39.208Z,99817.09
2023-02-13T23:15:07.464Z,99823.81
2023-02-13T23:17:53.250Z,99836.88
2023-02-13T23:20:20.685Z,99839.44
2023-02-13T23:22:47.496Z,99824.47
2023-02-13T23:25:14.336Z,99818.94
2023-02-13T23:27:41.087Z,99827.69
2023-02-13T23:30:08.299Z,99820.88
2023-02-13T23:32:35.042Z,99808.63
2023-02-13T23:35:01.718Z,99802.25
2023-02-13T23:37:28.445Z,99798.75
2023-02-13T23:39:55.220Z,99797.94
2023-02-13T23:42:21.936Z,99800.44
2023-02-13T23:44:48.593Z,99793.84
2023-02-13T23:47:15.342Z,99793.06
2023-02-13T23:49:42.125Z,99798.72
2023-02-13T23:52:08.819Z,99797.44
2023-02-13T23:54:35.643Z,99803.69
2023-02-13T23:57:02.289Z,99804.09
2023-02-13T23:59:28.939Z,99787.13
